sensor_id;sensor_type;location;lat;lon;timestamp;P1;durP1;ratioP1;P2;durP2;ratioP2
82850;SDS011;72609;45.768;4.884;2023-11-21T00:01:53;42.47;;;17.88;;
82850;SDS011;72609;45.768;4.884;2023-11-21T00:04:19;79.90;;;31.77;;
82850;SDS011;72609;45.768;4.884;2023-11-21T00:06:46;51.22;;;26.48;;
82850;SDS011;72609;45.768;4.884;2023-11-21T00:09:12;61.33;;;30.15;;
82850;SDS011;72609;45.768;4.884;2023-11-21T00:11:40;69.43;;;26.98;;
82850;SDS011;72609;45.768;4.884;2023-11-21T00:14:06;92.10;;;31.63;;
82850;SDS011;72609;45.768;4.884;2023-11-21T00:16:33;58.35;;;30.60;;
82850;SDS011;72609;45.768;4.884;2023-11-21T00:18:59;64.05;;;31.05;;
82850;SDS011;72609;45.768;4.884;2023-11-21T00:21:24;56.05;;;26.83;;
82850;SDS011;72609;45.768;4.884;2023-11-21T00:23:50;54.05;;;26.35;;
82850;SDS011;72609;45.768;4.884;2023-11-21T00:26:16;57.33;;;27.73;;
82850;SDS011;72609;45.768;4.884;2023-11-21T00:28:42;72.07;;;29.48;;
82850;SDS011;72609;45.768;4.884;2023-11-21T00:31:08;92.85;;;30.45;;
82850;SDS011;72609;45.768;4.884;2023-11-21T00:33:33;109.78;;;28.08;;
82850;SDS011;72609;45.768;4.884;2023-11-21T00:35:59;61.40;;;23.27;;
82850;SDS011;72609;45.768;4.884;2023-11-21T00:38:25;58.58;;;20.92;;
82850;SDS011;72609;45.768;4.884;2023-11-21T00:43:20;41.30;;;17.92;;
82850;SDS011;72609;45.768;4.884;2023-11-21T00:45:49;36.20;;;16.30;;
82850;SDS011;72609;45.768;4.884;2023-11-21T00:48:15;81.95;;;18.98;;
82850;SDS011;72609;45.768;4.884;2023-11-21T00:50:40;50.88;;;17.33;;
82850;SDS011;72609;45.768;4.884;2023-11-21T00:53:06;35.25;;;17.52;;
82850;SDS011;72609;45.768;4.884;2023-11-21T00:55:32;41.20;;;17.08;;
82850;SDS011;72609;45.768;4.884;2023-11-21T00:57:58;29.67;;;15.95;;
82850;SDS011;72609;45.768;4.884;2023-11-21T01:00:24;40.22;;;16.80;;
82850;SDS011;72609;45.768;4.884;2023-11-21T01:02:50;25.02;;;13.27;;
82850;SDS011;72609;45.768;4.884;2023-11-21T01:05:16;23.05;;;12.98;;
82850;SDS011;72609;45.768;4.884;2023-11-21T01:07:41;27.90;;;12.75;;
82850;SDS011;72609;45.768;4.884;2023-11-21T01:10:07;25.48;;;13.15;;
82850;SDS011;72609;45.768;4.884;2023-11-21T01:12:34;36.92;;;12.85;;
82850;SDS011;72609;45.768;4.884;2023-11-21T01:15:02;23.85;;;11.77;;
82850;SDS011;72609;45.768;4.884;2023-11-21T01:17:28;22.55;;;11.45;;
82850;SDS011;72609;45.768;4.884;2023-11-21T01:19:54;19.85;;;11.75;;
82850;SDS011;72609;45.768;4.884;2023-11-21T01:22:21;21.35;;;11.50;;
82850;SDS011;72609;45.768;4.884;2023-11-21T01:24:50;21.20;;;11.27;;
82850;SDS011;72609;45.768;4.884;2023-11-21T01:27:19;19.77;;;11.20;;
82850;SDS011;72609;45.768;4.884;2023-11-21T01:29:45;19.83;;;10.75;;
82850;SDS011;72609;45.768;4.884;2023-11-21T01:32:11;18.60;;;11.20;;
82850;SDS011;72609;45.768;4.884;2023-11-21T01:34:36;20.67;;;12.18;;
82850;SDS011;72609;45.768;4.884;2023-11-21T01:37:02;18.25;;;11.63;;
82850;SDS011;72609;45.768;4.884;2023-11-21T01:39:30;21.65;;;11.32;;
82850;SDS011;72609;45.768;4.884;2023-11-21T01:41:56;20.48;;;11.55;;
82850;SDS011;72609;45.768;4.884;2023-11-21T01:44:23;19.05;;;10.55;;
82850;SDS011;72609;45.768;4.884;2023-11-21T01:46:49;20.30;;;10.75;;
82850;SDS011;72609;45.768;4.884;2023-11-21T01:49:17;18.23;;;10.98;;
82850;SDS011;72609;45.768;4.884;2023-11-21T01:51:47;16.83;;;10.35;;
82850;SDS011;72609;45.768;4.884;2023-11-21T01:54:15;16.27;;;11.85;;
82850;SDS011;72609;45.768;4.884;2023-11-21T01:56:42;21.25;;;10.73;;
82850;SDS011;72609;45.768;4.884;2023-11-21T01:59:10;15.20;;;8.68;;
82850;SDS011;72609;45.768;4.884;2023-11-21T02:01:39;16.73;;;10.95;;
82850;SDS011;72609;45.768;4.884;2023-11-21T02:04:05;17.92;;;9.90;;
82850;SDS011;72609;45.768;4.884;2023-11-21T02:06:32;17.08;;;8.77;;
82850;SDS011;72609;45.768;4.884;2023-11-21T02:08:59;18.10;;;10.48;;
82850;SDS011;72609;45.768;4.884;2023-11-21T02:11:24;14.38;;;8.45;;
82850;SDS011;72609;45.768;4.884;2023-11-21T02:13:50;13.40;;;9.25;;
82850;SDS011;72609;45.768;4.884;2023-11-21T02:16:19;15.52;;;11.52;;
82850;SDS011;72609;45.768;4.884;2023-11-21T02:21:13;14.68;;;8.75;;
82850;SDS011;72609;45.768;4.884;2023-11-21T02:23:39;15.73;;;8.48;;
82850;SDS011;72609;45.768;4.884;2023-11-21T02:26:09;17.55;;;9.60;;
82850;SDS011;72609;45.768;4.884;2023-11-21T02:28:35;13.82;;;9.88;;
82850;SDS011;72609;45.768;4.884;2023-11-21T02:31:01;19.55;;;9.82;;
82850;SDS011;72609;45.768;4.884;2023-11-21T02:33:28;19.30;;;9.63;;
82850;SDS011;72609;45.768;4.884;2023-11-21T02:35:53;16.05;;;8.70;;
82850;SDS011;72609;45.768;4.884;2023-11-21T02:38:20;11.82;;;8.75;;
82850;SDS011;72609;45.768;4.884;2023-11-21T02:40:46;13.35;;;7.15;;
82850;SDS011;72609;45.768;4.884;2023-11-21T02:43:11;16.85;;;8.90;;
82850;SDS011;72609;45.768;4.884;2023-11-21T02:45:37;15.38;;;8.88;;
82850;SDS011;72609;45.768;4.884;2023-11-21T02:48:03;13.35;;;8.23;;
82850;SDS011;72609;45.768;4.884;2023-11-21T02:50:29;15.05;;;8.43;;
82850;SDS011;72609;45.768;4.884;2023-11-21T02:52:55;11.48;;;7.10;;
82850;SDS011;72609;45.768;4.884;2023-11-21T02:55:22;12.90;;;8.00;;
82850;SDS011;72609;45.768;4.884;2023-11-21T02:57:49;15.93;;;7.15;;
82850;SDS011;72609;45.768;4.884;2023-11-21T03:00:16;12.52;;;8.50;;
82850;SDS011;72609;45.768;4.884;2023-11-21T03:02:42;13.27;;;7.78;;
82850;SDS011;72609;45.768;4.884;2023-11-21T03:05:08;11.88;;;7.47;;
82850;SDS011;72609;45.768;4.884;2023-11-21T03:07:35;11.57;;;6.13;;
82850;SDS011;72609;45.768;4.884;2023-11-21T03:10:02;11.43;;;6.97;;
82850;SDS011;72609;45.768;4.884;2023-11-21T03:12:29;12.43;;;6.70;;
82850;SDS011;72609;45.768;4.884;2023-11-21T03:14:55;12.50;;;6.45;;
82850;SDS011;72609;45.768;4.884;2023-11-21T03:17:21;13.07;;;7.10;;
82850;SDS011;72609;45.768;4.884;2023-11-21T03:19:47;11.40;;;6.75;;
82850;SDS011;72609;45.768;4.884;2023-11-21T03:24:38;13.20;;;5.45;;
82850;SDS011;72609;45.768;4.884;2023-11-21T03:27:04;9.35;;;5.70;;
82850;SDS011;72609;45.768;4.884;2023-11-21T03:29:30;8.75;;;5.28;;
82850;SDS011;72609;45.768;4.884;2023-11-21T03:31:55;13.93;;;6.45;;
82850;SDS011;72609;45.768;4.884;2023-11-21T03:34:25;9.50;;;4.65;;
82850;SDS011;72609;45.768;4.884;2023-11-21T03:36:52;10.25;;;5.93;;
82850;SDS011;72609;45.768;4.884;2023-11-21T03:39:21;12.45;;;4.63;;
82850;SDS011;72609;45.768;4.884;2023-11-21T03:41:47;7.75;;;3.97;;
82850;SDS011;72609;45.768;4.884;2023-11-21T03:44:13;7.40;;;4.28;;
82850;SDS011;72609;45.768;4.884;2023-11-21T03:46:39;10.23;;;3.63;;
82850;SDS011;72609;45.768;4.884;2023-11-21T03:49:05;9.63;;;3.13;;
82850;SDS011;72609;45.768;4.884;2023-11-21T03:51:31;8.80;;;3.15;;
82850;SDS011;72609;45.768;4.884;2023-11-21T03:53:56;9.43;;;3.17;;
82850;SDS011;72609;45.768;4.884;2023-11-21T03:56:22;8.20;;;3.10;;
82850;SDS011;72609;45.768;4.884;2023-11-21T03:58:48;7.15;;;3.45;;
82850;SDS011;72609;45.768;4.884;2023-11-21T04:01:23;7.45;;;3.45;;
82850;SDS011;72609;45.768;4.884;2023-11-21T04:03:50;12.07;;;5.40;;
82850;SDS011;72609;45.768;4.884;2023-11-21T04:06:16;9.98;;;3.67;;
82850;SDS011;72609;45.768;4.884;2023-11-21T04:11:11;7.18;;;3.38;;
82850;SDS011;72609;45.768;4.884;2023-11-21T04:13:40;9.00;;;3.33;;
82850;SDS011;72609;45.768;4.884;2023-11-21T04:16:06;8.60;;;3.30;;
82850;SDS011;72609;45.768;4.884;2023-11-21T04:18:33;8.98;;;4.25;;
82850;SDS011;72609;45.768;4.884;2023-11-21T04:21:01;11.65;;;5.40;;
82850;SDS011;72609;45.768;4.884;2023-11-21T04:23:28;10.07;;;4.25;;
82850;SDS011;72609;45.768;4.884;2023-11-21T04:25:54;7.72;;;4.95;;
82850;SDS011;72609;45.768;4.884;2023-11-21T04:28:22;11.10;;;6.05;;
82850;SDS011;72609;45.768;4.884;2023-11-21T04:30:49;9.30;;;4.82;;
82850;SDS011;72609;45.768;4.884;2023-11-21T04:33:15;11.02;;;4.65;;
82850;SDS011;72609;45.768;4.884;2023-11-21T04:35:41;7.57;;;4.47;;
82850;SDS011;72609;45.768;4.884;2023-11-21T04:38:06;12.68;;;4.97;;
82850;SDS011;72609;45.768;4.884;2023-11-21T04:40:32;5.43;;;4.20;;
82850;SDS011;72609;45.768;4.884;2023-11-21T04:42:58;7.70;;;4.28;;
82850;SDS011;72609;45.768;4.884;2023-11-21T04:45:23;9.75;;;4.60;;
82850;SDS011;72609;45.768;4.884;2023-11-21T04:47:49;8.63;;;2.85;;
82850;SDS011;72609;45.768;4.884;2023-11-21T04:50:14;6.35;;;3.30;;
82850;SDS011;72609;45.768;4.884;2023-11-21T04:52:40;10.02;;;2.88;;
82850;SDS011;72609;45.768;4.884;2023-11-21T04:55:06;9.07;;;2.70;;
82850;SDS011;72609;45.768;4.884;2023-11-21T04:57:35;10.65;;;4.55;;
82850;SDS011;72609;45.768;4.884;2023-11-21T05:00:01;10.65;;;3.13;;
82850;SDS011;72609;45.768;4.884;2023-11-21T05:02:30;7.15;;;2.85;;
82850;SDS011;72609;45.768;4.884;2023-11-21T05:04:56;8.77;;;3.60;;
82850;SDS011;72609;45.768;4.884;2023-11-21T05:07:23;6.50;;;3.40;;
82850;SDS011;72609;45.768;4.884;2023-11-21T05:09:49;5.55;;;3.30;;
82850;SDS011;72609;45.768;4.884;2023-11-21T05:12:15;15.10;;;4.00;;
82850;SDS011;72609;45.768;4.884;2023-11-21T05:14:40;6.47;;;2.63;;
82850;SDS011;72609;45.768;4.884;2023-11-21T05:17:07;5.80;;;2.88;;
82850;SDS011;72609;45.768;4.884;2023-11-21T05:19:33;9.35;;;2.40;;
82850;SDS011;72609;45.768;4.884;2023-11-21T05:22:00;5.85;;;2.45;;
82850;SDS011;72609;45.768;4.884;2023-11-21T05:24:25;6.13;;;2.58;;
82850;SDS011;72609;45.768;4.884;2023-11-21T05:26:51;8.35;;;3.08;;
82850;SDS011;72609;45.768;4.884;2023-11-21T05:29:17;6.82;;;2.70;;
82850;SDS011;72609;45.768;4.884;2023-11-21T05:31:43;11.82;;;2.45;;
82850;SDS011;72609;45.768;4.884;2023-11-21T05:34:09;7.63;;;3.08;;
82850;SDS011;72609;45.768;4.884;2023-11-21T05:36:34;7.38;;;3.45;;
82850;SDS011;72609;45.768;4.884;2023-11-21T05:39:00;5.97;;;2.35;;
82850;SDS011;72609;45.768;4.884;2023-11-21T05:41:35;5.55;;;2.42;;
82850;SDS011;72609;45.768;4.884;2023-11-21T05:44:00;8.02;;;2.53;;
82850;SDS011;72609;45.768;4.884;2023-11-21T05:46:27;9.35;;;2.42;;
82850;SDS011;72609;45.768;4.884;2023-11-21T05:48:52;7.80;;;3.03;;
82850;SDS011;72609;45.768;4.884;2023-11-21T05:51:18;8.43;;;2.38;;
82850;SDS011;72609;45.768;4.884;2023-11-21T05:53:43;7.93;;;3.63;;
82850;SDS011;72609;45.768;4.884;2023-11-21T05:56:09;9.02;;;3.05;;
82850;SDS011;72609;45.768;4.884;2023-11-21T05:58:35;6.38;;;3.00;;
82850;SDS011;72609;45.768;4.884;2023-11-21T06:01:00;12.05;;;3.92;;
82850;SDS011;72609;45.768;4.884;2023-11-21T06:03:28;7.50;;;4.07;;
82850;SDS011;72609;45.768;4.884;2023-11-21T06:05:53;9.63;;;4.45;;
82850;SDS011;72609;45.768;4.884;2023-11-21T06:10:47;10.40;;;4.85;;
82850;SDS011;72609;45.768;4.884;2023-11-21T06:13:14;12.98;;;7.38;;
82850;SDS011;72609;45.768;4.884;2023-11-21T06:15:40;16.23;;;7.05;;
82850;SDS011;72609;45.768;4.884;2023-11-21T06:18:05;15.57;;;5.65;;
82850;SDS011;72609;45.768;4.884;2023-11-21T06:20:34;12.75;;;5.22;;
82850;SDS011;72609;45.768;4.884;2023-11-21T06:23:02;12.38;;;5.72;;
82850;SDS011;72609;45.768;4.884;2023-11-21T06:25:28;16.98;;;6.93;;
82850;SDS011;72609;45.768;4.884;2023-11-21T06:27:54;12.07;;;5.68;;
82850;SDS011;72609;45.768;4.884;2023-11-21T06:30:21;15.95;;;7.05;;
82850;SDS011;72609;45.768;4.884;2023-11-21T06:32:48;12.32;;;7.10;;
82850;SDS011;72609;45.768;4.884;2023-11-21T06:35:15;16.45;;;7.30;;
82850;SDS011;72609;45.768;4.884;2023-11-21T06:37:40;10.32;;;5.65;;
82850;SDS011;72609;45.768;4.884;2023-11-21T06:40:06;9.73;;;5.32;;
82850;SDS011;72609;45.768;4.884;2023-11-21T06:42:32;12.90;;;6.22;;
82850;SDS011;72609;45.768;4.884;2023-11-21T06:45:03;11.18;;;6.20;;
82850;SDS011;72609;45.768;4.884;2023-11-21T06:47:29;10.43;;;5.75;;
82850;SDS011;72609;45.768;4.884;2023-11-21T06:49:55;15.50;;;6.03;;
82850;SDS011;72609;45.768;4.884;2023-11-21T06:52:21;12.50;;;6.30;;
82850;SDS011;72609;45.768;4.884;2023-11-21T06:54:47;10.52;;;6.47;;
82850;SDS011;72609;45.768;4.884;2023-11-21T06:57:16;11.73;;;5.50;;
82850;SDS011;72609;45.768;4.884;2023-11-21T06:59:42;12.13;;;6.32;;
82850;SDS011;72609;45.768;4.884;2023-11-21T07:02:08;10.52;;;7.38;;
82850;SDS011;72609;45.768;4.884;2023-11-21T07:04:34;13.27;;;7.20;;
82850;SDS011;72609;45.768;4.884;2023-11-21T07:07:01;12.98;;;6.35;;
82850;SDS011;72609;45.768;4.884;2023-11-21T07:09:27;9.25;;;5.65;;
82850;SDS011;72609;45.768;4.884;2023-11-21T07:11:53;14.80;;;6.00;;
82850;SDS011;72609;45.768;4.884;2023-11-21T07:14:19;8.52;;;5.88;;
82850;SDS011;72609;45.768;4.884;2023-11-21T07:16:45;11.98;;;5.60;;
82850;SDS011;72609;45.768;4.884;2023-11-21T07:19:11;11.77;;;5.82;;
82850;SDS011;72609;45.768;4.884;2023-11-21T07:21:37;15.30;;;7.47;;
82850;SDS011;72609;45.768;4.884;2023-11-21T07:24:05;9.52;;;5.30;;
82850;SDS011;72609;45.768;4.884;2023-11-21T07:26:31;12.52;;;5.85;;
82850;SDS011;72609;45.768;4.884;2023-11-21T07:29:01;11.85;;;5.20;;
82850;SDS011;72609;45.768;4.884;2023-11-21T07:31:28;13.85;;;5.82;;
82850;SDS011;72609;45.768;4.884;2023-11-21T07:33:54;10.23;;;5.07;;
82850;SDS011;72609;45.768;4.884;2023-11-21T07:36:22;10.10;;;5.80;;
82850;SDS011;72609;45.768;4.884;2023-11-21T07:38:48;13.35;;;6.05;;
82850;SDS011;72609;45.768;4.884;2023-11-21T07:41:14;10.95;;;6.80;;
82850;SDS011;72609;45.768;4.884;2023-11-21T07:43:40;10.70;;;6.35;;
82850;SDS011;72609;45.768;4.884;2023-11-21T07:46:06;13.02;;;5.78;;
82850;SDS011;72609;45.768;4.884;2023-11-21T07:48:33;11.18;;;5.38;;
82850;SDS011;72609;45.768;4.884;2023-11-21T07:51:01;9.75;;;5.80;;
82850;SDS011;72609;45.768;4.884;2023-11-21T07:53:31;12.15;;;6.35;;
82850;SDS011;72609;45.768;4.884;2023-11-21T07:55:58;12.55;;;5.75;;
82850;SDS011;72609;45.768;4.884;2023-11-21T07:58:34;12.15;;;6.15;;
82850;SDS011;72609;45.768;4.884;2023-11-21T08:01:02;12.07;;;6.30;;
82850;SDS011;72609;45.768;4.884;2023-11-21T08:03:29;13.25;;;5.65;;
82850;SDS011;72609;45.768;4.884;2023-11-21T08:05:55;14.30;;;7.20;;
82850;SDS011;72609;45.768;4.884;2023-11-21T08:08:21;10.60;;;6.10;;
82850;SDS011;72609;45.768;4.884;2023-11-21T08:10:47;11.23;;;6.05;;
82850;SDS011;72609;45.768;4.884;2023-11-21T08:13:24;10.15;;;6.60;;
82850;SDS011;72609;45.768;4.884;2023-11-21T08:15:53;11.07;;;5.80;;
82850;SDS011;72609;45.768;4.884;2023-11-21T08:18:19;11.57;;;6.15;;
82850;SDS011;72609;45.768;4.884;2023-11-21T08:20:45;11.23;;;6.05;;
82850;SDS011;72609;45.768;4.884;2023-11-21T08:23:14;11.32;;;5.88;;
82850;SDS011;72609;45.768;4.884;2023-11-21T08:25:42;13.00;;;6.53;;
82850;SDS011;72609;45.768;4.884;2023-11-21T08:28:08;12.50;;;5.90;;
82850;SDS011;72609;45.768;4.884;2023-11-21T08:30:34;13.77;;;7.45;;
82850;SDS011;72609;45.768;4.884;2023-11-21T08:33:00;12.60;;;6.15;;
82850;SDS011;72609;45.768;4.884;2023-11-21T08:35:25;11.82;;;6.10;;
82850;SDS011;72609;45.768;4.884;2023-11-21T08:37:51;13.45;;;5.18;;
82850;SDS011;72609;45.768;4.884;2023-11-21T08:40:20;13.43;;;6.97;;
82850;SDS011;72609;45.768;4.884;2023-11-21T08:42:47;8.68;;;4.85;;
82850;SDS011;72609;45.768;4.884;2023-11-21T08:45:13;10.40;;;5.80;;
82850;SDS011;72609;45.768;4.884;2023-11-21T08:47:42;12.05;;;6.07;;
82850;SDS011;72609;45.768;4.884;2023-11-21T08:50:09;19.00;;;6.70;;
82850;SDS011;72609;45.768;4.884;2023-11-21T08:52:37;12.55;;;5.65;;
82850;SDS011;72609;45.768;4.884;2023-11-21T08:55:04;14.38;;;7.18;;
82850;SDS011;72609;45.768;4.884;2023-11-21T08:57:33;10.68;;;5.38;;
82850;SDS011;72609;45.768;4.884;2023-11-21T09:00:00;8.90;;;5.25;;
82850;SDS011;72609;45.768;4.884;2023-11-21T09:02:26;12.95;;;5.55;;
82850;SDS011;72609;45.768;4.884;2023-11-21T09:04:52;7.45;;;4.50;;
82850;SDS011;72609;45.768;4.884;2023-11-21T09:07:20;10.00;;;4.05;;
82850;SDS011;72609;45.768;4.884;2023-11-21T09:09:46;6.22;;;3.55;;
82850;SDS011;72609;45.768;4.884;2023-11-21T09:12:13;6.95;;;3.40;;
82850;SDS011;72609;45.768;4.884;2023-11-21T09:14:38;5.78;;;4.15;;
82850;SDS011;72609;45.768;4.884;2023-11-21T09:17:04;7.75;;;3.50;;
82850;SDS011;72609;45.768;4.884;2023-11-21T09:19:36;7.57;;;2.80;;
82850;SDS011;72609;45.768;4.884;2023-11-21T09:22:02;4.80;;;2.28;;
82850;SDS011;72609;45.768;4.884;2023-11-21T09:24:28;4.22;;;2.55;;
82850;SDS011;72609;45.768;4.884;2023-11-21T09:26:53;7.60;;;3.80;;
82850;SDS011;72609;45.768;4.884;2023-11-21T09:29:19;4.70;;;2.20;;
82850;SDS011;72609;45.768;4.884;2023-11-21T09:31:45;5.68;;;3.00;;
82850;SDS011;72609;45.768;4.884;2023-11-21T09:34:10;5.07;;;2.90;;
82850;SDS011;72609;45.768;4.884;2023-11-21T09:36:36;5.28;;;3.25;;
82850;SDS011;72609;45.768;4.884;2023-11-21T09:39:04;10.30;;;4.05;;
82850;SDS011;72609;45.768;4.884;2023-11-21T09:41:56;6.20;;;3.38;;
82850;SDS011;72609;45.768;4.884;2023-11-21T09:45:13;11.27;;;4.90;;
82850;SDS011;72609;45.768;4.884;2023-11-21T09:47:21;9.85;;;3.25;;
82850;SDS011;72609;45.768;4.884;2023-11-21T09:49:48;5.15;;;2.22;;
82850;SDS011;72609;45.768;4.884;2023-11-21T09:52:26;7.38;;;2.88;;
82850;SDS011;72609;45.768;4.884;2023-11-21T09:54:55;5.53;;;3.20;;
82850;SDS011;72609;45.768;4.884;2023-11-21T09:57:25;9.10;;;3.13;;
82850;SDS011;72609;45.768;4.884;2023-11-21T09:59:52;5.22;;;3.60;;
82850;SDS011;72609;45.768;4.884;2023-11-21T10:02:27;4.55;;;3.28;;
82850;SDS011;72609;45.768;4.884;2023-11-21T10:04:55;6.38;;;3.15;;
82850;SDS011;72609;45.768;4.884;2023-11-21T10:07:21;8.13;;;3.60;;
82850;SDS011;72609;45.768;4.884;2023-11-21T10:09:48;6.32;;;3.50;;
82850;SDS011;72609;45.768;4.884;2023-11-21T10:12:16;8.95;;;3.95;;
82850;SDS011;72609;45.768;4.884;2023-11-21T10:14:42;9.88;;;3.75;;
82850;SDS011;72609;45.768;4.884;2023-11-21T10:19:38;6.25;;;2.38;;
82850;SDS011;72609;45.768;4.884;2023-11-21T10:22:04;8.07;;;2.80;;
82850;SDS011;72609;45.768;4.884;2023-11-21T10:24:32;4.97;;;2.15;;
82850;SDS011;72609;45.768;4.884;2023-11-21T10:26:57;6.22;;;2.97;;
82850;SDS011;72609;45.768;4.884;2023-11-21T10:29:23;9.05;;;2.88;;
82850;SDS011;72609;45.768;4.884;2023-11-21T10:31:49;6.45;;;3.25;;
82850;SDS011;72609;45.768;4.884;2023-11-21T10:34:16;3.85;;;1.88;;
82850;SDS011;72609;45.768;4.884;2023-11-21T10:36:43;2.88;;;1.58;;
82850;SDS011;72609;45.768;4.884;2023-11-21T10:39:09;3.65;;;1.63;;
82850;SDS011;72609;45.768;4.884;2023-11-21T10:41:38;3.75;;;1.73;;
82850;SDS011;72609;45.768;4.884;2023-11-21T10:44:04;3.55;;;1.52;;
82850;SDS011;72609;45.768;4.884;2023-11-21T10:46:34;3.85;;;1.20;;
82850;SDS011;72609;45.768;4.884;2023-11-21T10:49:00;3.00;;;1.48;;
82850;SDS011;72609;45.768;4.884;2023-11-21T10:51:25;3.28;;;1.85;;
82850;SDS011;72609;45.768;4.884;2023-11-21T10:53:51;2.08;;;0.93;;
82850;SDS011;72609;45.768;4.884;2023-11-21T10:56:18;3.28;;;1.17;;
82850;SDS011;72609;45.768;4.884;2023-11-21T10:58:46;5.13;;;1.85;;
82850;SDS011;72609;45.768;4.884;2023-11-21T11:01:13;4.68;;;1.35;;
82850;SDS011;72609;45.768;4.884;2023-11-21T11:03:42;2.42;;;1.02;;
82850;SDS011;72609;45.768;4.884;2023-11-21T11:08:37;1.75;;;0.93;;
82850;SDS011;72609;45.768;4.884;2023-11-21T11:11:04;2.17;;;0.93;;
82850;SDS011;72609;45.768;4.884;2023-11-21T11:13:31;2.88;;;1.40;;
82850;SDS011;72609;45.768;4.884;2023-11-21T11:16:00;1.63;;;0.85;;
82850;SDS011;72609;45.768;4.884;2023-11-21T11:18:29;2.85;;;1.13;;
82850;SDS011;72609;45.768;4.884;2023-11-21T11:20:57;1.77;;;0.80;;
82850;SDS011;72609;45.768;4.884;2023-11-21T11:23:37;1.50;;;0.80;;
82850;SDS011;72609;45.768;4.884;2023-11-21T11:29:51;3.58;;;1.05;;
82850;SDS011;72609;45.768;4.884;2023-11-21T11:32:12;2.75;;;1.42;;
82850;SDS011;72609;45.768;4.884;2023-11-21T11:34:44;3.40;;;1.45;;
82850;SDS011;72609;45.768;4.884;2023-11-21T11:37:18;4.75;;;1.60;;
82850;SDS011;72609;45.768;4.884;2023-11-21T11:39:44;5.85;;;1.48;;
82850;SDS011;72609;45.768;4.884;2023-11-21T11:42:14;2.50;;;1.05;;
82850;SDS011;72609;45.768;4.884;2023-11-21T11:50:02;2.45;;;1.27;;
82850;SDS011;72609;45.768;4.884;2023-11-21T11:55:05;4.00;;;1.23;;
82850;SDS011;72609;45.768;4.884;2023-11-21T11:57:34;3.40;;;1.50;;
82850;SDS011;72609;45.768;4.884;2023-11-21T12:02:50;1.77;;;0.93;;
82850;SDS011;72609;45.768;4.884;2023-11-21T12:05:18;2.10;;;1.10;;
82850;SDS011;72609;45.768;4.884;2023-11-21T12:07:45;1.23;;;0.70;;
82850;SDS011;72609;45.768;4.884;2023-11-21T12:10:13;3.33;;;0.80;;
82850;SDS011;72609;45.768;4.884;2023-11-21T12:12:43;3.53;;;0.95;;
82850;SDS011;72609;45.768;4.884;2023-11-21T12:15:13;2.00;;;0.82;;
82850;SDS011;72609;45.768;4.884;2023-11-21T12:17:41;3.00;;;0.70;;
82850;SDS011;72609;45.768;4.884;2023-11-21T12:20:08;2.20;;;1.00;;
82850;SDS011;72609;45.768;4.884;2023-11-21T12:22:40;1.35;;;0.60;;
82850;SDS011;72609;45.768;4.884;2023-11-21T12:25:08;1.58;;;0.70;;
82850;SDS011;72609;45.768;4.884;2023-11-21T12:27:33;3.63;;;1.35;;
82850;SDS011;72609;45.768;4.884;2023-11-21T12:32:25;3.20;;;1.05;;
82850;SDS011;72609;45.768;4.884;2023-11-21T12:34:51;0.90;;;0.50;;
82850;SDS011;72609;45.768;4.884;2023-11-21T12:37:17;1.75;;;0.75;;
82850;SDS011;72609;45.768;4.884;2023-11-21T12:39:43;4.10;;;0.90;;
82850;SDS011;72609;45.768;4.884;2023-11-21T12:42:09;1.85;;;0.75;;
82850;SDS011;72609;45.768;4.884;2023-11-21T12:44:35;1.08;;;0.57;;
82850;SDS011;72609;45.768;4.884;2023-11-21T12:47:02;2.95;;;0.70;;
82850;SDS011;72609;45.768;4.884;2023-11-21T12:49:28;0.95;;;0.60;;
82850;SDS011;72609;45.768;4.884;2023-11-21T12:51:54;2.47;;;0.47;;
82850;SDS011;72609;45.768;4.884;2023-11-21T12:54:19;1.80;;;0.80;;
82850;SDS011;72609;45.768;4.884;2023-11-21T12:56:46;1.65;;;0.73;;
82850;SDS011;72609;45.768;4.884;2023-11-21T12:59:14;2.65;;;0.90;;
82850;SDS011;72609;45.768;4.884;2023-11-21T13:01:42;3.45;;;0.80;;
82850;SDS011;72609;45.768;4.884;2023-11-21T13:04:07;7.25;;;1.05;;
82850;SDS011;72609;45.768;4.884;2023-11-21T13:06:35;1.50;;;0.47;;
82850;SDS011;72609;45.768;4.884;2023-11-21T13:09:06;4.43;;;0.93;;
82850;SDS011;72609;45.768;4.884;2023-11-21T13:11:35;3.15;;;0.73;;
82850;SDS011;72609;45.768;4.884;2023-11-21T13:14:02;1.10;;;0.63;;
82850;SDS011;72609;45.768;4.884;2023-11-21T13:16:28;2.15;;;0.80;;
82850;SDS011;72609;45.768;4.884;2023-11-21T13:18:55;2.45;;;0.60;;
82850;SDS011;72609;45.768;4.884;2023-11-21T13:21:21;7.60;;;3.42;;
82850;SDS011;72609;45.768;4.884;2023-11-21T13:23:47;1.58;;;0.70;;
82850;SDS011;72609;45.768;4.884;2023-11-21T13:26:15;1.48;;;0.82;;
82850;SDS011;72609;45.768;4.884;2023-11-21T13:28:41;1.60;;;0.73;;
82850;SDS011;72609;45.768;4.884;2023-11-21T13:31:11;3.47;;;1.20;;
82850;SDS011;72609;45.768;4.884;2023-11-21T13:33:47;2.33;;;1.00;;
82850;SDS011;72609;45.768;4.884;2023-11-21T13:36:20;2.40;;;1.05;;
82850;SDS011;72609;45.768;4.884;2023-11-21T13:38:48;2.95;;;1.27;;
82850;SDS011;72609;45.768;4.884;2023-11-21T13:41:15;1.50;;;0.90;;
82850;SDS011;72609;45.768;4.884;2023-11-21T13:43:42;5.18;;;0.95;;
82850;SDS011;72609;45.768;4.884;2023-11-21T13:46:13;3.33;;;1.67;;
82850;SDS011;72609;45.768;4.884;2023-11-21T13:48:42;1.83;;;0.80;;
82850;SDS011;72609;45.768;4.884;2023-11-21T13:51:12;6.47;;;1.10;;
82850;SDS011;72609;45.768;4.884;2023-11-21T13:53:42;2.45;;;0.90;;
82850;SDS011;72609;45.768;4.884;2023-11-21T13:56:15;4.88;;;0.98;;
82850;SDS011;72609;45.768;4.884;2023-11-21T13:58:51;2.08;;;1.00;;
82850;SDS011;72609;45.768;4.884;2023-11-21T14:01:22;1.60;;;0.80;;
82850;SDS011;72609;45.768;4.884;2023-11-21T14:03:57;3.40;;;0.95;;
82850;SDS011;72609;45.768;4.884;2023-11-21T14:06:37;1.98;;;0.90;;
82850;SDS011;72609;45.768;4.884;2023-11-21T14:09:12;4.03;;;1.20;;
82850;SDS011;72609;45.768;4.884;2023-11-21T14:11:47;3.53;;;1.05;;
82850;SDS011;72609;45.768;4.884;2023-11-21T14:14:17;2.45;;;0.93;;
82850;SDS011;72609;45.768;4.884;2023-11-21T14:16:43;2.80;;;1.33;;
82850;SDS011;72609;45.768;4.884;2023-11-21T14:19:09;6.78;;;1.38;;
82850;SDS011;72609;45.768;4.884;2023-11-21T14:21:41;5.47;;;0.93;;
82850;SDS011;72609;45.768;4.884;2023-11-21T14:24:10;3.00;;;0.90;;
82850;SDS011;72609;45.768;4.884;2023-11-21T14:26:42;3.80;;;0.80;;
82850;SDS011;72609;45.768;4.884;2023-11-21T14:29:08;6.05;;;1.30;;
82850;SDS011;72609;45.768;4.884;2023-11-21T14:31:37;2.05;;;1.33;;
82850;SDS011;72609;45.768;4.884;2023-11-21T14:34:03;2.78;;;1.00;;
82850;SDS011;72609;45.768;4.884;2023-11-21T14:36:31;2.92;;;1.40;;
82850;SDS011;72609;45.768;4.884;2023-11-21T14:38:57;2.53;;;1.00;;
82850;SDS011;72609;45.768;4.884;2023-11-21T14:41:23;1.85;;;0.77;;
82850;SDS011;72609;45.768;4.884;2023-11-21T14:43:50;4.55;;;1.20;;
82850;SDS011;72609;45.768;4.884;2023-11-21T14:46:16;1.98;;;0.98;;
82850;SDS011;72609;45.768;4.884;2023-11-21T14:48:44;3.95;;;1.20;;
82850;SDS011;72609;45.768;4.884;2023-11-21T14:51:23;8.35;;;1.40;;
82850;SDS011;72609;45.768;4.884;2023-11-21T14:53:58;8.32;;;1.38;;
82850;SDS011;72609;45.768;4.884;2023-11-21T14:56:35;1.92;;;1.13;;
82850;SDS011;72609;45.768;4.884;2023-11-21T14:59:03;3.78;;;1.38;;
82850;SDS011;72609;45.768;4.884;2023-11-21T15:01:37;3.80;;;1.35;;
82850;SDS011;72609;45.768;4.884;2023-11-21T15:04:20;2.95;;;1.27;;
82850;SDS011;72609;45.768;4.884;2023-11-21T15:07:05;3.10;;;1.15;;
82850;SDS011;72609;45.768;4.884;2023-11-21T15:09:31;2.03;;;0.90;;
82850;SDS011;72609;45.768;4.884;2023-11-21T15:11:57;2.65;;;1.02;;
82850;SDS011;72609;45.768;4.884;2023-11-21T15:14:34;1.67;;;0.93;;
82850;SDS011;72609;45.768;4.884;2023-11-21T15:17:01;2.53;;;1.05;;